Time;durP1;ratioP1;P1;durP2;ratioP2;P2;SDS_P1;SDS_P2;PMS_P1;PMS_P2;Temp;Humidity;BMP_temperature;BMP_pressure;BME280_temperature;BME280_humidity;BME280_pressure;Samples;Min_cycle;Max_cycle;Signal;HPM_P1;HPM_P2
2023/10/17 00:01:19;;;;;;;5.50;1.70;;;;;;;9.93;86.44;101468.03;5107783;28;20100;-65
2023/10/17 00:03:47;;;;;;;2.55;1.73;;;;;;;9.97;86.24;101479.72;5091161;28;20020;-66
2023/10/17 00:06:16;;;;;;;2.55;2.00;;;;;;;9.86;86.38;101470.50;5109031;28;20039;-67
2023/10/17 00:08:42;;;;;;;8.35;1.67;;;;;;;9.94;85.91;101469.63;5110272;28;20036;-65
2023/10/17 00:11:15;;;;;;;3.35;2.13;;;;;;;9.90;85.99;101480.28;5109306;28;20062;-66
2023/10/17 00:13:59;;;;;;;3.05;1.98;;;;;;;9.85;85.64;101468.94;5107077;28;20027;-66
2023/10/17 00:16:30;;;;;;;2.85;1.35;;;;;;;9.79;86.39;101481.75;5110024;28;20035;-67
2023/10/17 00:18:57;;;;;;;2.10;1.67;;;;;;;9.75;86.99;101480.88;5103507;28;20437;-66
2023/10/17 00:21:22;;;;;;;3.55;2.20;;;;;;;9.80;86.73;101469.09;5111173;28;20028;-65
2023/10/17 00:23:50;;;;;;;3.58;2.20;;;;;;;9.91;86.08;101467.63;5109670;28;20039;-67
2023/10/17 00:26:18;;;;;;;2.88;1.95;;;;;;;9.84;86.61;101461.97;5091879;28;20047;-66
2023/10/17 00:28:49;;;;;;;2.33;1.60;;;;;;;9.83;86.92;101463.84;5109426;28;20080;-67
2023/10/17 00:31:14;;;;;;;2.38;1.77;;;;;;;9.83;87.21;101465.78;5108520;28;20101;-65
2023/10/17 00:33:41;;;;;;;2.45;1.50;;;;;;;9.86;87.48;101470.50;5111034;28;20028;-66
2023/10/17 00:36:14;;;;;;;2.78;2.35;;;;;;;9.82;86.87;101459.59;5110168;28;20040;-66
2023/10/17 00:38:43;;;;;;;2.50;1.80;;;;;;;9.84;87.07;101472.72;5108031;28;20050;-66
2023/10/17 00:41:18;;;;;;;5.43;2.35;;;;;;;9.79;86.84;101452.19;5110371;28;20289;-67
2023/10/17 00:43:43;;;;;;;2.97;1.83;;;;;;;9.70;86.98;101456.06;5111271;28;20039;-67
2023/10/17 00:46:09;;;;;;;2.90;1.67;;;;;;;9.67;86.41;101460.22;5107208;28;20027;-66
2023/10/17 00:48:35;;;;;;;3.13;2.10;;;;;;;9.73;86.27;101458.91;5105570;28;20036;-66
2023/10/17 00:51:08;;;;;;;2.47;1.65;;;;;;;9.76;85.83;101458.22;5110220;28;20126;-66
2023/10/17 00:53:39;;;;;;;3.75;1.60;;;;;;;9.80;85.67;101461.03;5108103;28;20028;-67
2023/10/17 00:56:07;;;;;;;4.45;1.52;;;;;;;9.71;86.15;101454.94;5091583;28;20097;-65
2023/10/17 00:58:35;;;;;;;4.65;1.92;;;;;;;9.64;86.57;101457.41;5095339;28;20059;-66
2023/10/17 01:01:09;;;;;;;4.10;1.85;;;;;;;9.54;87.28;101452.41;5096232;28;20059;-66
2023/10/17 01:03:41;;;;;;;2.72;1.63;;;;;;;9.56;87.45;101444.78;5107842;28;20453;-66
2023/10/17 01:08:44;;;;;;;1.63;1.38;;;;;;;9.57;87.30;101446.34;5109099;28;20093;-66
2023/10/17 01:11:24;;;;;;;2.08;1.48;;;;;;;9.58;86.82;101437.19;5094032;28;20457;-65
2023/10/17 01:13:55;;;;;;;2.05;1.70;;;;;;;9.68;85.90;101442.94;5094990;28;20036;-65
2023/10/17 01:16:22;;;;;;;1.42;1.33;;;;;;;9.63;85.27;101439.66;5095381;28;20100;-66
2023/10/17 01:18:47;;;;;;;2.10;1.58;;;;;;;9.52;85.75;101435.81;5092380;28;20028;-66
2023/10/17 01:21:20;;;;;;;3.03;1.60;;;;;;;9.50;85.53;101435.34;5112933;28;20415;-67
2023/10/17 01:23:48;;;;;;;1.55;1.38;;;;;;;9.45;86.21;101443.59;5107811;27;20492;-67
2023/10/17 01:26:20;;;;;;;3.35;1.75;;;;;;;9.44;86.00;101444.72;5092722;28;20025;-66
2023/10/17 01:28:48;;;;;;;2.47;1.67;;;;;;;9.42;86.41;101438.88;5095682;28;20063;-68
2023/10/17 01:31:14;;;;;;;3.17;1.80;;;;;;;9.48;84.94;101440.25;5074259;28;20032;-67
2023/10/17 01:33:44;;;;;;;3.70;1.80;;;;;;;9.44;84.98;101447.41;5091723;28;20028;-66
2023/10/17 01:36:11;;;;;;;3.17;1.50;;;;;;;9.38;86.03;101443.34;5095196;28;20050;-67
2023/10/17 01:38:38;;;;;;;3.08;1.80;;;;;;;9.32;85.93;101436.56;5112738;28;20050;-66
2023/10/17 01:41:05;;;;;;;2.35;1.70;;;;;;;9.41;85.78;101442.66;5111550;28;20388;-67
2023/10/17 01:43:34;;;;;;;3.92;1.60;;;;;;;9.35;84.97;101444.00;5094330;28;20055;-66
2023/10/17 01:46:01;;;;;;;2.70;1.38;;;;;;;9.31;84.57;101446.53;5094114;28;20118;-67
2023/10/17 01:48:26;;;;;;;2.03;1.40;;;;;;;9.36;84.32;101438.28;5110924;28;20540;-66
2023/10/17 01:50:53;;;;;;;1.85;1.55;;;;;;;9.33;83.98;101446.22;5074417;28;20131;-67
2023/10/17 01:53:19;;;;;;;1.95;1.30;;;;;;;9.26;84.52;101441.34;5091997;28;20024;-65
2023/10/17 01:55:54;;;;;;;3.88;1.70;;;;;;;9.14;84.85;101437.81;5112177;28;20042;-66
2023/10/17 01:58:22;;;;;;;2.08;1.73;;;;;;;9.22;83.91;101429.69;5108401;28;20019;-65
2023/10/17 02:00:47;;;;;;;1.95;1.30;;;;;;;9.15;83.99;101432.09;5092062;28;20107;-66
2023/10/17 02:03:16;;;;;;;2.88;1.73;;;;;;;9.05;84.58;101441.34;5109561;28;20055;-66
2023/10/17 02:05:42;;;;;;;1.88;1.45;;;;;;;8.93;85.66;101438.53;5095301;28;20407;-66
2023/10/17 02:08:14;;;;;;;2.65;1.33;;;;;;;8.89;85.97;101437.63;5094863;28;20038;-67
2023/10/17 02:10:40;;;;;;;1.33;1.23;;;;;;;9.01;85.51;101440.41;5089813;28;20111;-66
2023/10/17 02:13:06;;;;;;;1.45;1.17;;;;;;;9.00;85.03;101440.72;5094263;28;20107;-66
2023/10/17 02:15:32;;;;;;;2.42;1.42;;;;;;;9.07;84.19;101436.44;5109241;28;20031;-66
2023/10/17 02:17:57;;;;;;;2.20;1.30;;;;;;;9.09;83.74;101436.88;5092838;28;20039;-67
2023/10/17 02:23:12;;;;;;;2.65;2.05;;;;;;;8.96;85.33;101435.19;5110434;28;20040;-66
2023/10/17 02:25:41;;;;;;;4.97;1.60;;;;;;;9.00;84.20;101430.75;5088550;28;20040;-67
2023/10/17 02:28:07;;;;;;;2.60;1.50;;;;;;;9.00;84.68;101438.81;5092551;28;20035;-66
2023/10/17 02:30:33;;;;;;;3.97;1.77;;;;;;;8.91;84.83;101440.75;5106420;27;20031;-66
2023/10/17 02:33:01;;;;;;;1.38;1.20;;;;;;;8.96;84.68;101447.88;5112516;27;20032;-66
2023/10/17 02:35:28;;;;;;;2.58;1.20;;;;;;;8.85;84.53;101444.75;5088692;27;20113;-66
2023/10/17 02:37:59;;;;;;;5.55;1.58;;;;;;;8.80;84.86;101450.31;5091854;27;20024;-66
2023/10/17 02:40:25;;;;;;;1.60;1.20;;;;;;;8.78;85.36;101447.16;5110970;27;20035;-66
2023/10/17 02:42:50;;;;;;;1.65;1.42;;;;;;;8.82;84.98;101452.66;5089727;27;20019;-67
2023/10/17 02:45:26;;;;;;;1.70;1.33;;;;;;;8.84;84.33;101451.25;5094473;28;20047;-66
2023/10/17 02:47:56;;;;;;;3.15;1.25;;;;;;;8.90;83.84;101454.53;5108377;27;20027;-64
2023/10/17 02:52:57;;;;;;;2.47;1.55;;;;;;;8.80;83.45;101444.94;5107751;27;20441;-64
2023/10/17 02:55:25;;;;;;;4.28;1.27;;;;;;;8.72;84.24;101453.00;5076154;28;20027;-66
2023/10/17 02:57:57;;;;;;;1.85;1.60;;;;;;;8.67;84.66;101451.28;5092128;28;20030;-65
2023/10/17 03:00:25;;;;;;;2.40;1.42;;;;;;;8.66;85.23;101462.34;5108800;28;20484;-66
2023/10/17 03:02:56;;;;;;;1.75;1.50;;;;;;;8.59;84.83;101454.03;5091200;28;20111;-65
2023/10/17 03:05:22;;;;;;;4.93;1.15;;;;;;;8.52;85.31;101451.81;5091665;28;20032;-66
2023/10/17 03:07:51;;;;;;;1.40;1.30;;;;;;;8.55;85.12;101450.41;5106639;28;20031;-67
2023/10/17 03:10:36;;;;;;;1.48;1.38;;;;;;;8.53;85.16;101453.41;5110667;28;20015;-66
2023/10/17 03:13:13;;;;;;;4.30;1.38;;;;;;;8.69;83.32;101449.06;5109999;28;20040;-65
2023/10/17 03:15:45;;;;;;;1.25;1.15;;;;;;;8.67;83.34;101455.88;5090512;28;20027;-66
2023/10/17 03:18:16;;;;;;;2.55;1.50;;;;;;;8.56;83.59;101455.44;5080747;28;20023;-66
2023/10/17 03:20:50;;;;;;;1.40;1.30;;;;;;;8.48;84.25;101450.13;5109468;28;20040;-66
2023/10/17 03:23:28;;;;;;;2.28;1.30;;;;;;;8.49;84.34;101454.38;5073090;28;20495;-66
2023/10/17 03:26:00;;;;;;;1.88;1.23;;;;;;;8.56;83.15;101450.06;5108411;28;20047;-66
2023/10/17 03:28:28;;;;;;;1.58;1.27;;;;;;;8.46;83.88;101450.41;5093363;28;20118;-66
2023/10/17 03:30:54;;;;;;;3.35;1.52;;;;;;;8.40;83.81;101459.75;5091558;28;20110;-65
2023/10/17 03:33:40;;;;;;;1.27;1.17;;;;;;;8.35;84.10;101454.56;5111394;28;20028;-65
2023/10/17 03:36:39;;;;;;;2.10;1.35;;;;;;;8.35;84.27;101459.13;5091879;28;20131;-66
2023/10/17 03:38:54;;;;;;;1.63;1.38;;;;;;;8.32;84.16;101460.56;5089254;28;20032;-65
2023/10/17 03:41:24;;;;;;;2.00;1.67;;;;;;;8.40;83.11;101462.44;5110169;28;20027;-65
2023/10/17 03:43:52;;;;;;;1.55;1.13;;;;;;;8.39;83.31;101463.53;5107434;28;20035;-66
2023/10/17 03:46:18;;;;;;;1.40;1.30;;;;;;;8.25;84.22;101470.19;5109791;28;20028;-65
2023/10/17 03:48:50;;;;;;;2.03;1.20;;;;;;;8.29;83.44;101471.13;5090346;28;20058;-65
2023/10/17 03:51:24;;;;;;;1.20;1.10;;;;;;;8.27;83.38;101471.47;5107914;28;20373;-65
2023/10/17 03:53:53;;;;;;;1.70;1.20;;;;;;;8.18;83.72;101470.66;5109268;28;20466;-65
2023/10/17 03:56:23;;;;;;;1.63;1.23;;;;;;;8.14;83.86;101472.41;5092840;28;20035;-64
2023/10/17 03:58:53;;;;;;;1.80;1.50;;;;;;;8.21;83.36;101476.19;5110570;28;20043;-66
2023/10/17 04:01:22;;;;;;;1.50;1.30;;;;;;;8.15;84.10;101474.75;5090551;28;20054;-64
2023/10/17 04:03:53;;;;;;;5.03;1.40;;;;;;;8.17;83.08;101474.44;5088020;28;20031;-65
2023/10/17 04:06:32;;;;;;;1.27;1.20;;;;;;;8.14;82.91;101472.41;5104878;28;20034;-65
2023/10/17 04:09:15;;;;;;;5.80;1.35;;;;;;;8.18;82.66;101476.81;5107919;28;20059;-66
2023/10/17 04:11:40;;;;;;;3.92;1.25;;;;;;;8.14;83.36;101477.75;5108518;28;20031;-65
2023/10/17 04:14:09;;;;;;;1.40;1.25;;;;;;;8.09;83.94;101483.31;5108313;28;20016;-65
2023/10/17 04:16:35;;;;;;;1.80;1.30;;;;;;;8.09;83.67;101469.91;5105565;28;20055;-66
2023/10/17 04:19:20;;;;;;;3.40;1.50;;;;;;;8.11;84.80;101481.06;5081402;28;20130;-65
2023/10/17 04:22:01;;;;;;;1.83;1.33;;;;;;;8.02;84.71;101473.03;5105980;28;20437;-65
2023/10/17 04:24:35;;;;;;;1.95;1.45;;;;;;;8.06;84.89;101467.84;5109746;28;20027;-65
2023/10/17 04:29:49;;;;;;;2.10;1.00;;;;;;;8.16;82.71;101467.50;5107104;28;20024;-64
2023/10/17 04:32:15;;;;;;;1.63;1.35;;;;;;;8.06;82.93;101468.63;5093788;28;20033;-65
2023/10/17 04:34:47;;;;;;;2.80;1.55;;;;;;;7.97;83.93;101472.41;5114529;28;20031;-65
2023/10/17 04:37:16;;;;;;;3.35;1.38;;;;;;;7.98;84.69;101461.38;5114727;28;20039;-66
2023/10/17 04:39:48;;;;;;;4.22;1.70;;;;;;;7.98;84.42;101463.25;5092122;28;20599;-67
2023/10/17 04:42:24;;;;;;;2.55;1.40;;;;;;;7.94;84.06;101467.69;5110289;28;20054;-64
2023/10/17 04:44:50;;;;;;;4.75;1.33;;;;;;;8.09;82.42;101461.84;5094355;28;20031;-64
2023/10/17 04:49:54;;;;;;;1.42;1.23;;;;;;;8.04;82.27;101456.63;5114486;28;20024;-65
2023/10/17 04:52:30;;;;;;;4.20;1.75;;;;;;;7.97;83.41;101459.81;5112791;28;20084;-64
2023/10/17 04:57:59;;;;;;;3.45;1.60;;;;;;;7.97;82.75;101462.50;5110296;28;20035;-67
2023/10/17 05:01:10;;;;;;;1.65;1.45;;;;;;;7.88;83.46;101467.06;5108632;28;20036;-64
2023/10/17 05:03:32;;;;;;;1.20;1.10;;;;;;;7.84;83.38;101470.69;5112383;28;20043;-65
2023/10/17 06:17:47;;;;;;;4.50;2.92;;;;;;;7.57;83.82;101485.16;5112724;28;20043;-66
2023/10/17 06:20:14;;;;;;;5.72;2.38;;;;;;;7.54;84.42;101485.00;5092869;28;20495;-66
2023/10/17 06:33:35;;;;;;;3.03;1.83;;;;;;;7.65;86.08;101505.84;5110936;28;20116;-66
2023/10/17 06:36:13;;;;;;;4.25;2.13;;;;;;;7.65;86.31;101510.41;5094430;28;20571;-66
2023/10/17 06:38:46;;;;;;;4.38;2.30;;;;;;;7.67;86.45;101508.19;5110096;28;20036;-65
2023/10/17 06:41:14;;;;;;;2.67;2.10;;;;;;;7.74;86.57;101509.31;5111648;28;20084;-66
2023/10/17 06:43:46;;;;;;;4.28;2.20;;;;;;;7.78;86.83;101514.84;5111161;28;20027;-65
2023/10/17 06:46:14;;;;;;;4.28;2.20;;;;;;;7.95;85.48;101507.59;5092815;28;20035;-65
2023/10/17 06:48:48;;;;;;;3.65;2.33;;;;;;;8.01;85.57;101513.59;5093034;28;20027;-66
2023/10/17 06:51:29;;;;;;;3.85;2.25;;;;;;;7.97;85.80;101518.00;5092775;28;20020;-64
2023/10/17 06:53:57;;;;;;;3.42;2.15;;;;;;;7.98;85.57;101516.91;5092370;28;20031;-64
2023/10/17 06:56:25;;;;;;;2.30;1.95;;;;;;;8.04;85.63;101521.78;5111040;28;20043;-65
2023/10/17 06:58:56;;;;;;;2.75;2.08;;;;;;;7.97;86.69;101531.41;5108722;28;20024;-65
2023/10/17 07:01:28;;;;;;;2.95;2.03;;;;;;;7.95;87.62;101536.31;5110089;28;20096;-65
2023/10/17 07:03:55;;;;;;;5.20;2.30;;;;;;;8.13;87.65;101519.09;5093729;28;20479;-65
2023/10/17 07:06:25;;;;;;;3.92;2.25;;;;;;;8.32;87.83;101524.97;5092409;28;20142;-65
2023/10/17 07:08:52;;;;;;;2.83;2.15;;;;;;;8.42;88.04;101529.97;5089759;28;20039;-65
2023/10/17 07:16:33;;;;;;;3.97;2.13;;;;;;;8.95;88.63;101532.22;5107106;28;20502;-65
2023/10/17 07:22:06;;;;;;;4.22;2.33;;;;;;;9.20;90.94;101538.59;5106650;28;20095;-65
2023/10/17 07:24:33;;;;;;;2.47;2.17;;;;;;;9.51;90.61;101528.31;5109000;28;20122;-65
2023/10/17 07:27:11;;;;;;;3.25;1.98;;;;;;;9.59;91.75;101536.34;5077664;28;20864;-66
2023/10/17 07:29:38;;;;;;;2.90;1.98;;;;;;;10.00;91.88;101532.88;5092122;28;20028;-65
2023/10/17 07:32:16;;;;;;;2.45;1.95;;;;;;;10.03;91.13;101534.91;5110655;28;20047;-65
2023/10/17 07:34:46;;;;;;;2.80;1.85;;;;;;;10.25;91.13;101525.75;5092807;28;20042;-65
2023/10/17 07:40:00;;;;;;;2.28;1.73;;;;;;;10.51;90.71;101529.75;5110201;28;20042;-65
2023/10/17 07:42:31;;;;;;;4.68;2.03;;;;;;;10.63;90.25;101529.00;5109016;28;20035;-64
2023/10/17 07:45:02;;;;;;;2.47;1.73;;;;;;;10.76;90.10;101534.09;5110420;28;20032;-64
2023/10/17 07:47:34;;;;;;;2.72;1.90;;;;;;;10.91;90.56;101543.44;5111275;28;20397;-64
2023/10/17 07:50:00;;;;;;;2.03;1.70;;;;;;;11.08;91.38;101537.03;5092795;28;20020;-66
2023/10/17 07:52:26;;;;;;;2.90;1.90;;;;;;;11.22;90.92;101538.31;5106618;28;20031;-66
2023/10/17 07:57:40;;;;;;;3.53;2.17;;;;;;;11.46;89.41;101529.41;5088789;28;20035;-66
2023/10/17 08:03:00;;;;;;;3.20;1.60;;;;;;;11.59;88.63;101523.66;5090199;28;20027;-65
2023/10/17 08:05:36;;;;;;;1.95;1.45;;;;;;;11.44;89.67;101526.28;5109548;28;20526;-65
2023/10/17 08:08:08;;;;;;;3.42;1.40;;;;;;;11.64;89.98;101533.44;5091816;28;20464;-66
2023/10/17 08:10:39;;;;;;;2.53;1.42;;;;;;;11.68;89.33;101534.34;5090426;28;20024;-65
2023/10/17 08:13:07;;;;;;;1.45;1.35;;;;;;;11.91;88.48;101540.03;5107378;28;20031;-67
2023/10/17 08:15:38;;;;;;;2.63;1.58;;;;;;;11.94;88.06;101548.25;5109966;28;20038;-65
2023/10/17 08:18:14;;;;;;;;;;;;;;;12.03;88.04;101538.09;5089306;28;20036;-66
2023/10/17 08:23:26;;;;;;;1.45;1.10;;;;;;;12.06;87.78;101529.31;5089354;28;20488;-66
2023/10/17 08:25:59;;;;;;;5.57;1.80;;;;;;;12.20;87.98;101532.41;5091713;28;20400;-65
2023/10/17 08:28:33;;;;;;;2.10;1.30;;;;;;;12.27;87.04;101529.91;5108553;28;20574;-66
2023/10/17 08:31:05;;;;;;;1.33;1.20;;;;;;;12.38;87.53;101536.41;5108209;28;20031;-64
2023/10/17 08:33:40;;;;;;;1.98;1.48;;;;;;;12.43;86.24;101525.34;5091638;28;20031;-66
2023/10/17 08:36:10;;;;;;;1.75;1.42;;;;;;;12.57;85.56;101541.13;5090075;28;20035;-65
2023/10/17 08:38:39;;;;;;;2.15;1.40;;;;;;;12.62;85.67;101535.47;5092554;28;20027;-66
2023/10/17 08:41:08;;;;;;;2.53;1.55;;;;;;;12.72;85.26;101532.25;5073791;28;20028;-66
2023/10/17 08:43:36;;;;;;;2.67;1.48;;;;;;;12.86;84.93;101527.22;5092631;28;20039;-66
2023/10/17 08:46:09;;;;;;;2.25;1.33;;;;;;;12.88;84.91;101533.06;5108622;28;20032;-66
2023/10/17 08:48:37;;;;;;;2.85;1.40;;;;;;;12.98;85.26;101520.94;5110023;28;20032;-65
2023/10/17 08:51:06;;;;;;;2.10;1.58;;;;;;;13.07;83.60;101529.69;5089587;28;20506;-65
2023/10/17 08:53:32;;;;;;;2.40;1.45;;;;;;;13.15;83.82;101518.72;5108466;28;20500;-66
2023/10/17 08:55:59;;;;;;;3.00;1.45;;;;;;;13.19;85.08;101524.19;5108814;28;20027;-66
2023/10/17 08:58:32;;;;;;;3.80;1.50;;;;;;;13.35;84.75;101524.97;5109949;28;20028;-65
2023/10/17 09:01:07;;;;;;;1.38;1.20;;;;;;;13.37;80.97;101528.91;5109209;28;20023;-66
2023/10/17 09:03:38;;;;;;;3.05;1.25;;;;;;;13.45;82.16;101514.38;5091694;28;20059;-65
2023/10/17 09:11:29;;;;;;;2.58;0.98;;;;;;;13.59;76.03;101519.31;5098185;28;20120;-65
2023/10/17 09:14:18;;;;;;;1.08;1.00;;;;;;;13.64;74.91;101518.28;5088905;28;20032;-65
2023/10/17 09:16:49;;;;;;;2.20;0.82;;;;;;;13.75;73.75;101513.84;5088821;28;20491;-65
2023/10/17 09:19:16;;;;;;;1.15;0.77;;;;;;;13.86;72.62;101512.19;5091527;28;20062;-66
2023/10/17 09:21:47;;;;;;;1.80;0.90;;;;;;;14.09;74.35;101513.81;5113145;28;20380;-64
2023/10/17 09:24:32;;;;;;;3.35;1.00;;;;;;;14.41;72.18;101517.16;5111272;28;20605;-66
2023/10/17 09:26:58;;;;;;;4.30;0.60;;;;;;;14.63;72.40;101523.78;5112054;28;20044;-66
2023/10/17 09:29:27;;;;;;;1.35;0.80;;;;;;;14.46;65.97;101517.66;5094618;28;20102;-65
2023/10/17 09:31:56;;;;;;;1.15;0.65;;;;;;;14.72;64.13;101519.69;5111513;28;20187;-65
2023/10/17 09:34:26;;;;;;;0.80;0.80;;;;;;;14.90;64.67;101528.13;5113516;28;20113;-65
2023/10/17 09:36:58;;;;;;;2.70;0.40;;;;;;;14.75;61.25;101523.59;5094152;28;20039;-65
2023/10/17 09:39:27;;;;;;;0.65;0.57;;;;;;;14.51;58.50;101522.00;5111501;28;20032;-66
2023/10/17 09:41:53;;;;;;;0.60;0.60;;;;;;;14.53;59.20;101521.66;5111776;28;20033;-64
2023/10/17 09:44:18;;;;;;;0.82;0.47;;;;;;;14.54;58.37;101518.56;5095227;28;20096;-65
2023/10/17 09:46:50;;;;;;;0.57;0.38;;;;;;;14.63;59.00;101515.63;5112168;28;20503;-69
2023/10/17 09:49:19;;;;;;;2.38;0.68;;;;;;;14.75;57.68;101520.91;5109260;28;20040;-67
2023/10/17 09:51:46;;;;;;;1.58;0.73;;;;;;;14.77;56.91;101524.03;5111899;28;20050;-67
2023/10/17 09:54:13;;;;;;;2.95;0.63;;;;;;;14.93;58.38;101527.38;5113000;28;20027;-65
2023/10/17 09:56:43;;;;;;;0.80;0.38;;;;;;;14.98;58.06;101538.72;5112014;28;20031;-66
2023/10/17 09:59:16;;;;;;;0.45;0.40;;;;;;;15.05;56.62;101540.78;5111135;28;20520;-66
2023/10/17 10:01:45;;;;;;;0.60;0.40;;;;;;;14.93;55.25;101530.09;5109229;28;20045;-66
2023/10/17 10:04:12;;;;;;;0.85;0.40;;;;;;;14.90;55.47;101530.84;5111983;28;20031;-66
2023/10/17 10:06:39;;;;;;;0.80;0.45;;;;;;;14.94;56.77;101534.38;5111781;28;20035;-67
2023/10/17 10:09:13;;;;;;;0.45;0.45;;;;;;;14.93;56.64;101521.97;5112872;28;20034;-67
2023/10/17 10:11:48;;;;;;;0.68;0.40;;;;;;;14.84;56.32;101519.50;5107793;28;20471;-66
2023/10/17 10:14:15;;;;;;;3.90;0.70;;;;;;;14.46;54.71;101514.94;5093969;28;20089;-66
2023/10/17 10:16:47;;;;;;;2.80;0.63;;;;;;;14.56;57.35;101519.00;5077088;28;20035;-67
2023/10/17 10:19:14;;;;;;;1.25;0.50;;;;;;;14.67;56.19;101516.47;5112578;28;20069;-67
2023/10/17 10:21:55;;;;;;;0.28;0.28;;;;;;;14.83;56.34;101515.22;5112281;28;20027;-67
2023/10/17 10:24:29;;;;;;;0.65;0.38;;;;;;;14.94;56.97;101524.31;5110873;28;20072;-68
2023/10/17 10:27:10;;;;;;;0.20;0.20;;;;;;;14.66;55.36;101512.97;5087148;28;20040;-67
2023/10/17 10:29:36;;;;;;;2.85;0.50;;;;;;;14.43;54.81;101510.25;5092973;28;20031;-65
2023/10/17 10:32:06;;;;;;;0.35;0.35;;;;;;;14.56;55.38;101519.00;5111967;28;20487;-66
2023/10/17 10:34:35;;;;;;;0.20;0.20;;;;;;;14.21;55.25;101513.66;5112333;28;20036;-67
2023/10/17 10:37:03;;;;;;;0.20;0.20;;;;;;;14.61;55.25;101505.16;5093689;28;20020;-65
2023/10/17 10:39:30;;;;;;;0.45;0.35;;;;;;;14.76;54.57;101506.97;5093185;28;20043;-65
2023/10/17 10:41:57;;;;;;;2.17;0.30;;;;;;;15.04;55.36;101510.13;5088263;28;20423;-65
2023/10/17 10:48:14;;;;;;;2.55;0.50;;;;;;;15.37;56.49;101496.69;5110751;28;20510;-66
2023/10/17 10:50:45;;;;;;;1.27;0.32;;;;;;;15.50;55.20;101497.31;5107326;28;20057;-66
2023/10/17 10:53:22;;;;;;;1.60;0.30;;;;;;;15.58;55.31;101498.94;5112046;28;20088;-68
2023/10/17 10:55:55;;;;;;;0.82;0.38;;;;;;;15.65;55.21;101490.91;5110985;28;20108;-65
2023/10/17 10:58:22;;;;;;;3.92;0.35;;;;;;;15.74;57.00;101490.63;5106602;28;20492;-65
2023/10/17 11:00:51;;;;;;;0.40;0.40;;;;;;;15.60;53.38;101485.78;5109481;28;20125;-66
2023/10/17 11:03:19;;;;;;;0.30;0.20;;;;;;;15.60;55.13;101485.78;5109293;28;20032;-66
2023/10/17 11:05:58;;;;;;;1.90;0.50;;;;;;;15.66;55.17;101488.97;5092364;28;20031;-67
2023/10/17 11:08:25;;;;;;;0.50;0.50;;;;;;;15.66;54.06;101483.56;5108754;28;20032;-65
2023/10/17 11:10:50;;;;;;;0.13;0.13;;;;;;;15.59;54.75;101469.84;5110210;28;20042;-65
2023/10/17 11:13:16;;;;;;;0.90;0.47;;;;;;;15.66;55.39;101478.13;5109378;28;20011;-66
2023/10/17 11:15:44;;;;;;;0.45;0.30;;;;;;;15.70;56.17;101471.56;5088940;28;20065;-65
2023/10/17 11:18:10;;;;;;;0.50;0.38;;;;;;;15.79;54.86;101460.44;5109543;28;20043;-66
2023/10/17 11:20:40;;;;;;;0.10;0.10;;;;;;;15.87;55.48;101462.09;5109581;28;20495;-65
2023/10/17 11:23:08;;;;;;;2.15;0.40;;;;;;;15.93;55.14;101471.47;5109004;27;20078;-65
2023/10/17 11:25:34;;;;;;;0.73;0.32;;;;;;;15.96;53.25;101465.28;5087100;28;20118;-66
2023/10/17 11:28:06;;;;;;;0.22;0.20;;;;;;;15.95;53.44;101458.31;5109747;28;20024;-65
2023/10/17 11:30:39;;;;;;;2.55;0.25;;;;;;;15.95;55.09;101450.16;5092181;28;20110;-65
2023/10/17 11:33:11;;;;;;;0.93;0.40;;;;;;;15.56;52.59;101451.59;5081818;27;20139;-65
2023/10/17 11:35:52;;;;;;;0.10;0.10;;;;;;;15.59;53.88;101451.66;5113170;27;20031;-65
2023/10/17 11:38:34;;;;;;;2.55;0.32;;;;;;;15.70;54.42;101457.22;5110254;28;20035;-66
2023/10/17 11:41:07;;;;;;;1.05;0.45;;;;;;;15.81;53.92;101455.41;5108625;28;20035;-66
2023/10/17 11:43:42;;;;;;;0.10;0.10;;;;;;;15.77;54.29;101460.81;5092541;28;20081;-66
2023/10/17 11:46:14;;;;;;;3.20;0.30;;;;;;;15.88;53.19;101456.28;5090528;28;20047;-66
2023/10/17 11:48:45;;;;;;;0.68;0.32;;;;;;;15.88;52.22;101453.56;5101136;27;20060;-67
2023/10/17 11:51:17;;;;;;;0.20;0.20;;;;;;;15.88;52.23;101441.91;5105586;27;20027;-66
2023/10/17 11:54:06;;;;;;;0.73;0.30;;;;;;;15.86;53.21;101442.28;5107745;28;20028;-65
2023/10/17 11:56:41;;;;;;;0.30;0.13;;;;;;;15.66;52.20;101437.38;5094016;27;20050;-65
2023/10/17 11:59:09;;;;;;;0.00;0.00;;;;;;;15.74;51.76;101434.38;5112255;27;20131;-69
2023/10/17 12:01:35;;;;;;;0.10;0.10;;;;;;;15.54;52.04;101432.97;5107179;27;20035;-66
2023/10/17 12:04:06;;;;;;;0.43;0.10;;;;;;;15.70;52.37;101441.69;5104084;27;20061;-66
2023/10/17 12:06:34;;;;;;;;;;;;;;;15.74;53.03;101437.09;5109671;28;20040;-66
2023/10/17 12:09:22;;;;;;;0.17;0.10;;;;;;;15.76;51.69;101434.78;5104398;28;19943;-66
2023/10/17 12:11:52;;;;;;;0.10;0.10;;;;;;;15.76;53.02;101434.78;5086869;28;20064;-65
2023/10/17 12:14:21;;;;;;;0.75;0.20;;;;;;;15.69;52.12;101439.34;5107391;28;20038;-66
2023/10/17 12:16:54;;;;;;;0.17;0.10;;;;;;;15.67;53.06;101437.00;5082835;28;20020;-66
2023/10/17 12:19:26;;;;;;;0.40;0.28;;;;;;;15.73;52.71;101432.81;5105993;28;20134;-67
2023/10/17 12:21:53;;;;;;;0.10;0.10;;;;;;;15.81;52.62;101422.81;5093826;28;20123;-66
2023/10/17 12:24:24;;;;;;;0.77;0.25;;;;;;;15.86;52.98;101428.69;5090724;28;20027;-65
2023/10/17 12:26:53;;;;;;;0.35;0.15;;;;;;;15.95;52.46;101428.41;5110296;28;20118;-68
2023/10/17 12:29:19;;;;;;;0.35;0.30;;;;;;;15.95;51.24;101434.59;5087957;28;20059;-65
2023/10/17 12:31:45;;;;;;;2.60;0.20;;;;;;;15.97;52.02;101429.59;5108314;28;20058;-66
2023/10/17 12:34:15;;;;;;;0.30;0.20;;;;;;;15.89;53.19;101429.91;5088840;28;20040;-66
2023/10/17 12:36:41;;;;;;;0.17;0.10;;;;;;;15.96;54.12;101432.69;5110875;28;20046;-66
2023/10/17 12:39:07;;;;;;;0.35;0.30;;;;;;;15.92;52.40;101426.41;5102896;28;20020;-66
2023/10/17 12:41:34;;;;;;;0.15;0.10;;;;;;;16.02;51.23;101426.56;5112691;28;20035;-66
2023/10/17 12:44:00;;;;;;;0.40;0.17;;;;;;;15.91;52.20;101414.75;5104402;28;20035;-66
2023/10/17 12:46:25;;;;;;;0.30;0.10;;;;;;;15.83;54.02;101417.78;5109530;28;20034;-65
2023/10/17 12:48:51;;;;;;;0.20;0.20;;;;;;;15.71;53.57;101416.09;5101963;28;21893;-65
2023/10/17 12:51:16;;;;;;;0.35;0.20;;;;;;;15.08;54.01;101416.00;5105695;28;20456;-65
2023/10/17 12:53:44;;;;;;;0.22;0.20;;;;;;;15.43;53.18;101418.47;5112402;28;20038;-65
2023/10/17 12:56:10;;;;;;;0.88;0.28;;;;;;;15.48;53.81;101404.56;5110231;28;20427;-65
2023/10/17 12:58:36;;;;;;;0.22;0.20;;;;;;;15.54;54.35;101416.69;5110911;27;20028;-66
2023/10/17 13:01:05;;;;;;;1.55;0.20;;;;;;;15.54;54.81;101405.03;5109331;27;20031;-65
2023/10/17 13:03:36;;;;;;;0.20;0.20;;;;;;;15.52;54.74;101402.69;5110728;28;20023;-66
2023/10/17 13:06:02;;;;;;;0.77;0.20;;;;;;;15.51;55.51;101406.53;5095271;28;20032;-66
2023/10/17 13:08:28;;;;;;;0.32;0.20;;;;;;;14.98;55.59;101405.78;5094663;28;20032;-65
2023/10/17 13:10:54;;;;;;;0.98;0.20;;;;;;;14.90;55.75;101408.78;5115063;27;20039;-67
2023/10/17 13:13:19;;;;;;;0.10;0.10;;;;;;;14.61;55.43;101396.72;5092800;28;20509;-66
2023/10/17 13:15:45;;;;;;;0.52;0.20;;;;;;;14.68;55.11;101404.94;5099367;28;20019;-65
2023/10/17 13:18:12;;;;;;;0.10;0.10;;;;;;;14.79;55.88;101394.28;5112933;27;20028;-65
2023/10/17 13:20:38;;;;;;;0.25;0.17;;;;;;;14.99;55.21;101396.50;5112259;28;20483;-66
2023/10/17 13:23:04;;;;;;;3.17;0.25;;;;;;;15.31;53.35;101388.81;5110434;28;20039;-66
2023/10/17 13:25:36;;;;;;;0.35;0.20;;;;;;;15.07;54.66;101386.53;5112974;28;20553;-65
2023/10/17 13:28:05;;;;;;;0.10;0.10;;;;;;;15.09;54.16;101395.09;5108093;28;20058;-66
2023/10/17 13:30:33;;;;;;;0.20;0.20;;;;;;;15.47;51.93;101383.19;5107488;28;20043;-65
2023/10/17 13:32:59;;;;;;;1.30;0.20;;;;;;;15.52;53.50;101383.69;5111055;28;20027;-66
2023/10/17 13:35:24;;;;;;;0.55;0.10;;;;;;;15.78;54.42;101367.28;5113009;28;20506;-66
2023/10/17 13:37:51;;;;;;;0.20;0.20;;;;;;;15.53;53.62;101387.94;5093995;28;20514;-67
2023/10/17 13:40:18;;;;;;;1.23;0.20;;;;;;;15.63;54.73;101383.78;5113122;28;20027;-65
2023/10/17 13:42:43;;;;;;;0.20;0.20;;;;;;;15.82;54.75;101384.41;5112294;28;20058;-65
2023/10/17 13:45:15;;;;;;;0.68;0.20;;;;;;;15.88;55.11;101382.91;5093456;28;20078;-65
2023/10/17 13:47:41;;;;;;;1.35;0.57;;;;;;;16.00;53.48;101385.38;5105283;28;20023;-66
2023/10/17 13:50:13;;;;;;;0.20;0.20;;;;;;;15.91;53.43;101379.44;5093829;28;20056;-67